createdAt,value
2023-01-03T00:00:05.054Z,22.48
2023-01-03T00:01:05.132Z,22.50
2023-01-03T00:02:05.110Z,22.51
2023-01-03T00:03:05.014Z,22.50
2023-01-03T00:04:05.138Z,22.50
2023-01-03T00:05:05.003Z,22.49
2023-01-03T00:06:05.182Z,22.49
2023-01-03T00:07:04.995Z,22.48
2023-01-03T00:08:04.983Z,22.48
2023-01-03T00:09:04.987Z,22.48
2023-01-03T00:10:04.981Z,22.48
2023-01-03T00:11:05.625Z,22.49
2023-01-03T00:12:05.685Z,22.48
2023-01-03T00:13:05.028Z,22.48
2023-01-03T00:14:05.030Z,22.47
2023-01-03T00:15:04.972Z,22.48
2023-01-03T00:16:04.960Z,22.47
2023-01-03T00:17:05.048Z,22.47
2023-01-03T00:18:04.947Z,22.47
2023-01-03T00:19:04.947Z,22.47
2023-01-03T00:20:04.939Z,22.48
2023-01-03T00:21:05.005Z,22.47
2023-01-03T00:22:05.040Z,22.46
2023-01-03T00:24:04.994Z,22.46
2023-01-03T00:25:05.601Z,22.47
2023-01-03T00:26:05.002Z,22.46
2023-01-03T00:27:05.186Z,22.46
2023-01-03T00:28:04.900Z,22.46
2023-01-03T00:29:04.885Z,22.47
2023-01-03T00:30:04.979Z,22.48
2023-01-03T00:31:05.016Z,22.47
2023-01-03T00:32:08.166Z,22.48
2023-01-03T00:33:04.943Z,22.47
2023-01-03T00:34:04.880Z,22.47
2023-01-03T00:35:05.605Z,22.48
2023-01-03T00:36:04.925Z,22.47
2023-01-03T00:37:06.107Z,22.46
2023-01-03T00:38:04.875Z,22.46
2023-01-03T00:39:04.926Z,22.47
2023-01-03T00:40:05.613Z,22.47
2023-01-03T00:41:05.032Z,22.47
2023-01-03T00:42:04.894Z,22.46
2023-01-03T00:43:04.907Z,22.46
2023-01-03T00:44:04.846Z,22.47
2023-01-03T00:45:04.882Z,22.46
2023-01-03T00:46:05.719Z,22.46
2023-01-03T00:47:04.819Z,22.46
2023-01-03T00:48:04.805Z,22.45
2023-01-03T00:49:05.689Z,22.46
2023-01-03T00:50:04.787Z,22.46
2023-01-03T00:51:06.617Z,22.45
2023-01-03T00:52:04.814Z,22.46
2023-01-03T00:53:04.844Z,22.46
2023-01-03T00:54:04.836Z,22.47
2023-01-03T00:55:07.762Z,22.46
2023-01-03T00:56:04.759Z,22.44
2023-01-03T00:57:04.838Z,22.44
2023-01-03T00:58:04.832Z,22.44
2023-01-03T00:59:05.119Z,22.43
2023-01-03T01:00:04.771Z,22.44
2023-01-03T01:01:04.928Z,22.43
2023-01-03T01:02:04.934Z,22.44
2023-01-03T01:03:04.934Z,22.44
2023-01-03T01:04:04.947Z,22.44
2023-01-03T01:05:04.796Z,22.44
2023-01-03T01:06:04.837Z,22.44
2023-01-03T01:07:04.750Z,22.45
2023-01-03T01:08:04.760Z,22.44
2023-01-03T01:09:05.696Z,22.44
2023-01-03T01:10:05.679Z,22.45
2023-01-03T01:11:04.806Z,22.43
2023-01-03T01:12:05.696Z,22.45
2023-01-03T01:13:05.185Z,22.44
2023-01-03T01:14:04.741Z,22.45
2023-01-03T01:15:05.765Z,22.44
2023-01-03T01:16:04.761Z,22.46
2023-01-03T01:17:04.820Z,22.45
2023-01-03T01:18:05.652Z,22.46
2023-01-03T01:19:04.730Z,22.46
2023-01-03T01:20:04.740Z,22.46
2023-01-03T01:21:04.759Z,22.45
2023-01-03T01:22:04.824Z,22.44
2023-01-03T01:23:05.693Z,22.44
2023-01-03T01:24:05.711Z,22.43
2023-01-03T01:25:04.718Z,22.44
2023-01-03T01:26:04.725Z,22.45
2023-01-03T01:27:04.731Z,22.45
2023-01-03T01:28:04.783Z,22.45
2023-01-03T01:29:04.762Z,22.45
2023-01-03T01:30:04.716Z,22.45
2023-01-03T01:31:05.722Z,22.44
2023-01-03T01:32:04.776Z,22.44
2023-01-03T01:33:04.715Z,22.44
2023-01-03T01:34:04.712Z,22.44
2023-01-03T01:35:05.685Z,22.44
2023-01-03T01:36:05.727Z,22.43
2023-01-03T01:37:04.738Z,22.43
2023-01-03T01:39:04.697Z,22.42
2023-01-03T01:40:04.743Z,22.43
2023-01-03T01:41:04.680Z,22.44
2023-01-03T01:42:04.731Z,22.43
2023-01-03T01:43:04.697Z,22.43
2023-01-03T01:44:04.686Z,22.42
2023-01-03T01:45:04.712Z,22.43
2023-01-03T01:46:04.784Z,22.41
2023-01-03T01:48:04.695Z,22.41
2023-01-03T01:49:04.698Z,22.41
2023-01-03T01:51:04.692Z,22.42
2023-01-03T01:52:04.632Z,22.42
2023-01-03T01:53:04.680Z,22.43
2023-01-03T01:55:04.675Z,22.43
2023-01-03T01:57:04.595Z,22.43
2023-01-03T01:59:04.576Z,22.43
2023-01-03T02:00:04.647Z,22.42
2023-01-03T02:01:04.617Z,22.41
2023-01-03T02:02:04.723Z,22.42
2023-01-03T02:03:04.777Z,22.42
2023-01-03T02:04:04.531Z,22.42
2023-01-03T02:25:11.170Z,22.41
2023-01-03T03:09:04.137Z,22.42
2023-01-03T03:10:04.676Z,22.43
2023-01-03T03:11:04.669Z,22.44
2023-01-03T03:12:04.075Z,22.43
2023-01-03T03:14:04.042Z,22.44
2023-01-03T03:15:04.686Z,22.42
2023-01-03T03:16:04.207Z,22.43
2023-01-03T03:17:04.153Z,22.43
2023-01-03T03:18:04.187Z,22.43
2023-01-03T03:19:04.207Z,22.42
2023-01-03T03:20:06.725Z,22.42
2023-01-03T03:21:04.112Z,22.42
2023-01-03T03:22:04.115Z,22.43
2023-01-03T03:23:04.681Z,22.45
2023-01-03T03:24:04.149Z,22.45
2023-01-03T03:25:04.138Z,22.45
2023-01-03T03:26:04.188Z,22.44
2023-01-03T03:27:04.148Z,22.44
2023-01-03T03:28:04.067Z,22.44
2023-01-03T03:29:04.118Z,22.44
2023-01-03T03:30:04.083Z,22.42
2023-01-03T03:31:04.702Z,22.42
2023-01-03T03:32:04.018Z,22.44
2023-01-03T03:33:04.247Z,22.44
2023-01-03T03:34:03.971Z,22.44
2023-01-03T03:35:04.020Z,22.43
2023-01-03T03:36:04.059Z,22.42
2023-01-03T03:37:03.998Z,22.42
2023-01-03T03:38:04.008Z,22.41
2023-01-03T03:39:03.982Z,22.41
2023-01-03T03:40:03.900Z,22.42
2023-01-03T03:41:03.891Z,22.43
2023-01-03T03:42:03.871Z,22.44
2023-01-03T03:43:03.863Z,22.45
2023-01-03T03:44:03.922Z,22.43
2023-01-03T03:45:09.807Z,22.44
2023-01-03T03:46:03.844Z,22.43
2023-01-03T03:47:04.075Z,22.43
2023-01-03T03:48:03.860Z,22.42
2023-01-03T03:49:04.674Z,22.41
2023-01-03T03:50:03.824Z,22.42
2023-01-03T03:51:03.801Z,22.42
2023-01-03T03:52:03.739Z,22.43
2023-01-03T03:53:03.732Z,22.43
2023-01-03T03:54:03.720Z,22.43
2023-01-03T03:55:03.726Z,22.44
2023-01-03T03:56:03.739Z,22.42
2023-01-03T03:57:03.729Z,22.42
2023-01-03T03:59:03.801Z,22.43
2023-01-03T04:00:03.763Z,22.42
2023-01-03T04:01:03.733Z,22.43
2023-01-03T04:02:03.899Z,22.42
2023-01-03T04:03:03.893Z,22.42
2023-01-03T04:04:03.816Z,22.41
2023-01-03T04:07:03.689Z,22.42
2023-01-03T04:08:03.688Z,22.42
2023-01-03T04:09:03.747Z,22.41
2023-01-03T04:10:03.689Z,22.41
2023-01-03T04:11:03.792Z,22.41
2023-01-03T04:12:03.656Z,22.41
2023-01-03T04:13:03.672Z,22.41
2023-01-03T04:15:04.254Z,22.42
2023-01-03T04:16:03.961Z,22.42
2023-01-03T04:17:03.888Z,22.42
2023-01-03T04:18:03.855Z,22.42
2023-01-03T04:19:03.792Z,22.43
2023-01-03T04:20:03.777Z,22.43
2023-01-03T04:21:03.798Z,22.41
2023-01-03T04:22:03.766Z,22.42
2023-01-03T04:23:03.733Z,22.42
2023-01-03T04:24:03.742Z,22.42
2023-01-03T04:26:03.783Z,22.41
2023-01-03T04:27:03.692Z,22.42
2023-01-03T04:28:03.685Z,22.42
2023-01-03T04:29:03.780Z,22.42
2023-01-03T04:30:03.753Z,22.42
2023-01-03T04:31:03.769Z,22.42
2023-01-03T04:32:03.774Z,22.41
2023-01-03T04:33:04.232Z,22.42
2023-01-03T04:34:03.624Z,22.43
2023-01-03T04:35:03.582Z,22.44
2023-01-03T04:36:04.208Z,22.44
2023-01-03T04:37:03.659Z,22.43
2023-01-03T04:38:03.635Z,22.43
2023-01-03T04:39:03.691Z,22.41
2023-01-03T04:40:03.645Z,22.41
2023-01-03T04:41:03.581Z,22.42
2023-01-03T04:42:03.551Z,22.42
2023-01-03T04:43:03.653Z,22.43
2023-01-03T04:44:03.557Z,22.42
2023-01-03T04:45:03.517Z,22.41
2023-01-03T04:46:03.636Z,22.41
2023-01-03T04:48:03.438Z,22.41
2023-01-03T04:49:03.462Z,22.41
2023-01-03T04:50:03.420Z,22.42
2023-01-03T04:52:03.372Z,22.41
2023-01-03T04:53:03.450Z,22.41
2023-01-03T04:54:03.399Z,22.42
2023-01-03T04:56:03.332Z,22.43
2023-01-03T05:00:03.254Z,22.44
2023-01-03T05:02:03.407Z,22.44
2023-01-03T05:03:03.189Z,22.44
2023-01-03T05:04:03.287Z,22.44
2023-01-03T05:05:03.188Z,22.44
2023-01-03T05:06:03.729Z,22.44
2023-01-03T05:07:03.265Z,22.42
2023-01-03T05:10:03.131Z,22.42
2023-01-03T05:11:03.157Z,22.44
2023-01-03T05:12:03.114Z,22.43
2023-01-03T05:14:03.141Z,22.43
2023-01-03T05:15:03.071Z,22.42
2023-01-03T05:16:03.086Z,22.42
2023-01-03T05:17:03.135Z,22.42
2023-01-03T05:18:03.057Z,22.43
2023-01-03T05:19:03.719Z,22.42
2023-01-03T05:20:03.145Z,22.43
2023-01-03T05:22:03.087Z,22.43
2023-01-03T05:23:03.013Z,22.43
2023-01-03T05:24:02.943Z,22.43
2023-01-03T05:25:03.231Z,22.44
2023-01-03T05:26:02.914Z,22.44
2023-01-03T05:29:02.960Z,22.45
2023-01-03T05:30:02.852Z,22.44
2023-01-03T05:31:02.927Z,22.45
2023-01-03T05:34:02.876Z,22.44
2023-01-03T05:35:02.788Z,22.45
2023-01-03T05:36:02.789Z,22.45
2023-01-03T05:37:02.836Z,22.45
2023-01-03T05:39:02.768Z,22.44
2023-01-03T05:40:02.814Z,22.43
2023-01-03T05:42:02.797Z,22.46
2023-01-03T05:45:03.227Z,22.45
2023-01-03T05:46:02.861Z,22.44
2023-01-03T05:47:02.758Z,22.45
2023-01-03T05:48:02.761Z,22.45
2023-01-03T05:49:02.732Z,22.45
2023-01-03T05:50:02.654Z,22.45
2023-01-03T05:51:02.694Z,22.45
2023-01-03T05:52:02.793Z,22.44
2023-01-03T05:53:02.689Z,22.45
2023-01-03T05:54:02.607Z,22.44
2023-01-03T05:55:02.615Z,22.44
2023-01-03T05:56:02.664Z,22.44
2023-01-03T05:57:02.585Z,22.44
2023-01-03T05:58:02.644Z,22.44
2023-01-03T05:59:02.571Z,22.43
2023-01-03T06:00:02.584Z,22.43
2023-01-03T06:02:02.917Z,22.43
2023-01-03T06:03:02.842Z,22.43
2023-01-03T06:04:02.850Z,22.44
2023-01-03T06:05:02.782Z,22.43
2023-01-03T06:07:02.714Z,22.44
2023-01-03T06:09:02.682Z,22.44
2023-01-03T06:10:02.675Z,22.44
2023-01-03T06:11:02.732Z,22.44
2023-01-03T06:12:02.747Z,22.43
2023-01-03T06:13:02.653Z,22.43
2023-01-03T06:14:02.623Z,22.43
2023-01-03T06:15:02.709Z,22.43
2023-01-03T06:16:02.600Z,22.44
2023-01-03T06:19:02.593Z,22.45
2023-01-03T06:21:02.647Z,22.44
2023-01-03T06:22:08.700Z,22.44
2023-01-03T06:23:02.541Z,22.42
2023-01-03T06:24:02.506Z,22.43
2023-01-03T06:25:02.505Z,22.43
2023-01-03T06:28:02.495Z,22.46
2023-01-03T06:29:02.531Z,22.46
2023-01-03T06:30:02.511Z,22.46
2023-01-03T06:31:02.462Z,22.45
2023-01-03T06:32:08.802Z,22.45
2023-01-03T06:34:02.447Z,22.46
2023-01-03T06:35:02.365Z,22.45
2023-01-03T06:36:02.412Z,22.46
2023-01-03T06:37:02.382Z,22.45
2023-01-03T06:38:02.768Z,22.45
2023-01-03T06:39:02.339Z,22.46
2023-01-03T06:43:02.336Z,22.46
2023-01-03T06:46:02.866Z,22.48
2023-01-03T06:47:02.334Z,22.48
2023-01-03T06:48:02.353Z,22.49
2023-01-03T06:49:02.231Z,22.49
2023-01-03T06:50:02.263Z,22.48
2023-01-03T06:51:02.218Z,22.47
2023-01-03T06:52:02.232Z,22.47
2023-01-03T06:53:02.249Z,22.47
2023-01-03T06:54:02.134Z,22.47
2023-01-03T06:57:02.173Z,22.47
2023-01-03T06:58:02.327Z,22.47
2023-01-03T06:59:02.090Z,22.48
2023-01-03T07:00:02.084Z,22.48
2023-01-03T07:01:02.135Z,22.48
2023-01-03T07:02:02.127Z,22.48
2023-01-03T07:03:07.103Z,22.48
2023-01-03T07:04:06.881Z,22.48
2023-01-03T07:05:02.779Z,22.48
2023-01-03T07:06:02.859Z,22.48
2023-01-03T07:07:02.772Z,22.48
2023-01-03T07:08:02.388Z,22.49
2023-01-03T07:09:04.781Z,22.49
2023-01-03T07:10:04.267Z,22.49
2023-01-03T07:11:01.949Z,22.49
2023-01-03T07:12:01.869Z,22.50
2023-01-03T07:13:01.970Z,22.51
2023-01-03T07:14:01.842Z,22.50
2023-01-03T07:15:02.811Z,22.50
2023-01-03T07:16:02.833Z,22.49
2023-01-03T07:17:01.826Z,22.49
2023-01-03T07:18:03.760Z,22.49
2023-01-03T07:19:01.777Z,22.49
2023-01-03T07:20:02.331Z,22.50
2023-01-03T07:21:01.820Z,22.49
2023-01-03T07:22:02.271Z,22.50
2023-01-03T07:23:02.326Z,22.50
2023-01-03T07:24:01.830Z,22.50
2023-01-03T07:25:01.763Z,22.51
2023-01-03T07:26:01.673Z,22.51
2023-01-03T07:27:01.658Z,22.51
2023-01-03T07:28:07.108Z,22.50
2023-01-03T07:29:02.661Z,22.50
2023-01-03T07:30:01.658Z,22.51
2023-01-03T07:31:01.802Z,22.50
2023-01-03T07:32:04.351Z,22.51
2023-01-03T07:33:01.598Z,22.51
2023-01-03T07:34:01.609Z,22.52
2023-01-03T07:35:02.380Z,22.53
2023-01-03T07:36:09.355Z,22.52
2023-01-03T07:37:03.274Z,22.52
2023-01-03T07:38:01.799Z,22.52
2023-01-03T07:39:01.468Z,22.51
2023-01-03T07:40:01.471Z,22.53
2023-01-03T07:41:01.510Z,22.52
2023-01-03T07:42:02.489Z,22.54
2023-01-03T07:43:08.270Z,22.53
2023-01-03T07:44:01.432Z,22.53
2023-01-03T07:45:01.426Z,22.53
2023-01-03T07:46:01.445Z,22.54
2023-01-03T07:47:03.308Z,22.54
2023-01-03T07:48:01.308Z,22.53
2023-01-03T07:49:05.067Z,22.54
2023-01-03T07:50:10.366Z,22.54
2023-01-03T07:51:01.374Z,22.54
2023-01-03T07:52:01.326Z,22.53
2023-01-03T07:53:01.245Z,22.54
2023-01-03T07:54:02.364Z,22.54
2023-01-03T07:55:01.208Z,22.54
2023-01-03T07:56:09.099Z,22.54
